createdAt,value
2023-04-25T00:00:11.520Z,9.60
2023-04-25T00:00:34.327Z,9.50
2023-04-25T00:00:57.682Z,9.50
2023-04-25T00:01:21.286Z,9.50
2023-04-25T00:01:44.131Z,9.40
2023-04-25T00:02:09.214Z,9.40
2023-04-25T00:02:34.544Z,9.40
2023-04-25T00:02:58.196Z,9.40
2023-04-25T00:03:22.863Z,9.40
2023-04-25T00:03:47.055Z,9.40
2023-04-25T00:04:12.533Z,9.40
2023-04-25T00:04:36.263Z,9.30
2023-04-25T00:05:00.359Z,9.40
2023-04-25T00:05:24.433Z,9.40
2023-04-25T00:05:47.356Z,9.40
2023-04-25T00:06:10.159Z,9.40
2023-04-25T00:06:33.481Z,9.40
2023-04-25T00:06:56.833Z,9.40
2023-04-25T00:07:23.277Z,9.40
2023-04-25T00:07:46.086Z,9.40
2023-04-25T00:08:08.828Z,9.40
2023-04-25T00:08:31.614Z,9.40
2023-04-25T00:08:56.772Z,9.40
2023-04-25T00:09:19.527Z,9.40
2023-04-25T00:09:45.204Z,9.40
2023-04-25T00:10:10.035Z,9.40
2023-04-25T00:10:33.038Z,9.50
2023-04-25T00:10:58.257Z,9.40
2023-04-25T00:11:22.092Z,9.50
2023-04-25T00:11:47.036Z,9.40
2023-04-25T00:12:09.804Z,9.40
2023-04-25T00:12:32.505Z,9.50
2023-04-25T00:12:55.200Z,9.50
2023-04-25T00:13:18.588Z,9.50
2023-04-25T00:13:42.974Z,9.50
2023-04-25T00:14:05.824Z,9.50
2023-04-25T00:14:29.014Z,9.50
2023-04-25T00:14:52.465Z,9.50
2023-04-25T00:15:17.471Z,9.50
2023-04-25T00:15:42.749Z,9.50
2023-04-25T00:16:06.348Z,9.80
2023-04-25T00:16:30.392Z,9.50
2023-04-25T00:16:55.622Z,9.50
2023-04-25T00:17:20.684Z,9.50
2023-04-25T00:17:45.854Z,9.60
2023-04-25T00:18:08.696Z,9.60
2023-04-25T00:18:33.898Z,9.60
2023-04-25T00:18:56.829Z,9.60
2023-04-25T00:19:22.009Z,9.60
2023-04-25T00:19:47.219Z,9.60
2023-04-25T00:20:12.232Z,9.50
2023-04-25T00:20:39.445Z,9.50
2023-04-25T00:21:02.247Z,9.50
2023-04-25T00:21:27.348Z,9.50
2023-04-25T00:21:50.134Z,9.50
2023-04-25T00:22:13.102Z,9.50
2023-04-25T00:22:40.483Z,9.50
2023-04-25T00:23:03.219Z,9.50
2023-04-25T00:23:25.929Z,9.50
2023-04-25T00:23:51.211Z,9.50
2023-04-25T00:24:14.323Z,9.50
2023-04-25T00:24:37.290Z,9.40
2023-04-25T00:25:01.380Z,9.40
2023-04-25T00:25:24.699Z,9.40
2023-04-25T00:25:47.546Z,9.40
2023-04-25T00:26:10.489Z,9.40
2023-04-25T00:26:33.204Z,9.40
2023-04-25T00:26:58.173Z,9.40
2023-04-25T00:27:20.840Z,9.40
2023-04-25T00:27:43.611Z,9.40
2023-04-25T00:28:08.806Z,9.40
2023-04-25T00:28:34.156Z,9.50
2023-04-25T00:28:56.928Z,9.40
2023-04-25T00:29:19.706Z,9.40
2023-04-25T00:29:42.432Z,9.50
2023-04-25T00:30:09.540Z,9.50
2023-04-25T00:30:32.238Z,9.50
2023-04-25T00:30:57.196Z,9.50
2023-04-25T00:31:20.020Z,9.50
2023-04-25T00:31:45.081Z,9.40
2023-04-25T00:32:07.910Z,9.50
2023-04-25T00:32:30.685Z,9.50
2023-04-25T00:32:55.605Z,9.50
2023-04-25T00:33:18.305Z,9.40
2023-04-25T00:33:43.301Z,9.50
2023-04-25T00:34:09.242Z,9.40
2023-04-25T00:34:31.927Z,9.40
2023-04-25T00:34:54.659Z,9.40
2023-04-25T00:35:19.706Z,9.40
2023-04-25T00:35:43.271Z,9.40
2023-04-25T00:36:09.534Z,9.40
2023-04-25T00:36:32.550Z,9.40
2023-04-25T00:36:55.328Z,9.40
2023-04-25T00:37:20.241Z,9.40
2023-04-25T00:37:44.502Z,9.40
2023-04-25T00:38:08.437Z,9.40
2023-04-25T00:38:33.450Z,9.40
2023-04-25T00:38:56.957Z,9.40
2023-04-25T00:39:21.804Z,9.40
2023-04-25T00:39:44.573Z,9.30
2023-04-25T00:40:09.171Z,9.40
2023-04-25T00:40:31.846Z,9.40
2023-04-25T00:40:57.037Z,9.30
2023-04-25T00:41:22.286Z,9.30
2023-04-25T00:41:45.251Z,9.30
2023-04-25T00:42:08.071Z,9.30
2023-04-25T00:42:30.982Z,9.30
2023-04-25T00:42:55.967Z,9.40
2023-04-25T00:43:18.706Z,9.30
2023-04-25T00:43:41.368Z,9.30
2023-04-25T00:44:05.292Z,9.30
2023-04-25T00:44:28.072Z,9.40
2023-04-25T00:44:51.127Z,9.40
2023-04-25T00:45:16.831Z,9.40
2023-04-25T00:45:40.177Z,9.40
2023-04-25T00:46:02.987Z,9.40
2023-04-25T00:46:27.990Z,9.50
2023-04-25T00:46:50.885Z,9.40
2023-04-25T00:47:13.675Z,9.40
2023-04-25T00:47:39.016Z,9.40
2023-04-25T00:48:01.906Z,9.40
2023-04-25T00:48:27.692Z,9.40
2023-04-25T00:48:50.435Z,9.40
2023-04-25T00:49:16.668Z,9.30
2023-04-25T00:49:41.703Z,9.30
2023-04-25T00:50:05.369Z,9.30
2023-04-25T00:50:28.070Z,9.30
2023-04-25T00:50:55.290Z,9.30
2023-04-25T00:51:20.537Z,9.30
2023-04-25T00:51:43.274Z,9.30
2023-04-25T00:52:06.137Z,9.30
2023-04-25T00:52:28.890Z,9.30
2023-04-25T00:52:53.042Z,9.30
2023-04-25T00:53:16.070Z,9.30
2023-04-25T00:53:41.004Z,9.30
2023-04-25T00:54:06.950Z,9.30
2023-04-25T00:54:32.890Z,9.30
2023-04-25T00:54:55.841Z,9.30
2023-04-25T00:55:19.679Z,9.30
2023-04-25T00:55:44.823Z,9.20
2023-04-25T00:56:07.566Z,9.20
2023-04-25T00:56:30.975Z,9.20
2023-04-25T00:56:56.247Z,9.20
2023-04-25T00:57:18.966Z,9.20
2023-04-25T00:57:44.186Z,9.30
2023-04-25T00:58:06.890Z,9.20
2023-04-25T00:58:29.731Z,9.30
2023-04-25T00:58:52.977Z,9.20
2023-04-25T00:59:16.359Z,9.30
2023-04-25T00:59:41.465Z,9.30
2023-04-25T01:00:06.905Z,9.30
2023-04-25T01:00:29.916Z,9.20
2023-04-25T01:00:53.390Z,9.20
2023-04-25T01:01:18.846Z,9.20
2023-04-25T01:01:45.189Z,9.20
2023-04-25T01:02:08.582Z,9.20
2023-04-25T01:02:32.818Z,9.20
2023-04-25T01:02:55.721Z,9.20
2023-04-25T01:03:21.407Z,9.20
2023-04-25T01:03:44.777Z,9.20
2023-04-25T01:04:08.384Z,9.20
2023-04-25T01:04:31.365Z,9.20
2023-04-25T01:04:54.268Z,9.20
2023-04-25T01:05:19.956Z,9.20
2023-04-25T01:05:42.891Z,9.20
2023-04-25T01:06:08.139Z,9.20
2023-04-25T01:06:31.536Z,9.20
2023-04-25T01:06:54.255Z,9.20
2023-04-25T01:07:17.332Z,9.10
2023-04-25T01:07:40.104Z,9.10
2023-04-25T01:08:07.503Z,9.20
2023-04-25T01:08:30.258Z,9.10
2023-04-25T01:08:53.210Z,9.20
2023-04-25T01:09:16.034Z,9.20
2023-04-25T01:09:38.815Z,9.20
2023-04-25T01:10:01.679Z,9.30
2023-04-25T01:10:24.484Z,9.20
2023-04-25T01:10:49.405Z,9.20
2023-04-25T01:11:12.136Z,9.30
2023-04-25T01:11:37.433Z,9.30
2023-04-25T01:12:01.470Z,9.20
2023-04-25T01:12:24.201Z,9.20
2023-04-25T01:12:49.193Z,9.20
2023-04-25T01:13:11.955Z,9.20
2023-04-25T01:13:37.774Z,8.90
2023-04-25T01:14:00.580Z,9.10
2023-04-25T01:14:23.471Z,9.10
2023-04-25T01:14:46.251Z,9.10
2023-04-25T01:15:09.506Z,9.10
2023-04-25T01:15:34.371Z,9.10
2023-04-25T01:15:57.109Z,9.10
2023-04-25T01:16:22.106Z,9.10
2023-04-25T01:16:46.033Z,9.10
2023-04-25T01:17:11.696Z,9.10
2023-04-25T01:17:35.262Z,9.10
2023-04-25T01:18:01.499Z,9.10
2023-04-25T01:18:26.736Z,9.10
2023-04-25T01:18:52.503Z,9.10
2023-04-25T01:19:15.283Z,9.00
2023-04-25T01:19:38.012Z,9.10
2023-04-25T01:20:01.136Z,9.00
2023-04-25T01:20:29.140Z,9.00
2023-04-25T01:20:52.681Z,9.00
2023-04-25T01:21:16.971Z,9.00
2023-04-25T01:21:39.710Z,9.00
2023-04-25T01:22:02.707Z,9.00
2023-04-25T01:22:25.786Z,9.00
2023-04-25T01:22:50.734Z,9.00
2023-04-25T01:23:13.510Z,9.00
2023-04-25T01:23:36.238Z,9.00
2023-04-25T01:24:01.232Z,9.00
2023-04-25T01:24:24.002Z,9.00
2023-04-25T01:24:46.688Z,9.00
2023-04-25T01:25:11.904Z,9.00
2023-04-25T01:25:34.649Z,9.10
2023-04-25T01:25:57.371Z,9.10
2023-04-25T01:26:22.319Z,9.10
2023-04-25T01:26:51.022Z,9.00
2023-04-25T01:27:13.785Z,9.00
2023-04-25T01:27:39.605Z,9.00
2023-04-25T01:28:02.422Z,9.00
2023-04-25T01:28:27.537Z,9.00
2023-04-25T01:28:50.213Z,9.00
2023-04-25T01:29:15.470Z,8.90
2023-04-25T01:29:38.192Z,8.90
2023-04-25T01:30:01.276Z,8.90
2023-04-25T01:30:24.501Z,8.90
2023-04-25T01:30:49.771Z,8.80
2023-04-25T01:31:12.667Z,8.10
2023-04-25T01:31:36.266Z,8.90
2023-04-25T01:31:59.933Z,8.80
2023-04-25T01:32:23.230Z,8.80
2023-04-25T01:32:46.098Z,8.90
2023-04-25T01:33:09.381Z,8.90
2023-04-25T01:33:32.340Z,8.90
2023-04-25T01:33:55.053Z,8.90
2023-04-25T01:34:20.192Z,8.90
2023-04-25T01:34:42.985Z,8.90
2023-04-25T01:35:10.346Z,8.90
2023-04-25T01:35:33.306Z,8.90
2023-04-25T01:35:56.007Z,8.90
2023-04-25T01:36:20.291Z,8.80
2023-04-25T01:36:43.040Z,8.80
2023-04-25T01:37:05.848Z,8.80
2023-04-25T01:37:28.563Z,8.80
2023-04-25T01:37:51.731Z,8.70
2023-04-25T01:38:15.510Z,8.70
2023-04-25T01:38:38.275Z,8.70
2023-04-25T01:39:01.852Z,8.70
2023-04-25T01:39:24.683Z,8.70
2023-04-25T01:39:47.417Z,8.70
2023-04-25T01:40:11.105Z,8.60
2023-04-25T01:40:33.847Z,8.60
2023-04-25T01:40:56.587Z,8.60
2023-04-25T01:41:19.430Z,8.70
2023-04-25T01:41:42.200Z,8.60
2023-04-25T01:42:05.027Z,8.70
2023-04-25T01:42:30.253Z,8.70
2023-04-25T01:42:53.051Z,8.80
2023-04-25T01:43:15.871Z,8.70
2023-04-25T01:43:38.547Z,8.80
2023-04-25T01:44:01.414Z,8.70
2023-04-25T01:44:24.206Z,8.70
2023-04-25T01:44:47.061Z,8.70
2023-04-25T01:45:11.888Z,8.70
2023-04-25T01:45:34.886Z,8.70
2023-04-25T01:45:58.327Z,8.70
2023-04-25T01:46:21.097Z,8.60
2023-04-25T01:46:43.994Z,8.60
2023-04-25T01:47:06.898Z,8.60
2023-04-25T01:47:31.762Z,8.60
2023-04-25T01:47:56.203Z,8.60
2023-04-25T01:48:19.100Z,8.60
2023-04-25T01:48:44.188Z,8.60
2023-04-25T01:49:07.135Z,8.60
2023-04-25T01:49:29.916Z,8.60
2023-04-25T01:49:55.708Z,8.60
2023-04-25T01:50:18.562Z,8.50
2023-04-25T01:50:41.362Z,8.60
2023-04-25T01:51:04.530Z,8.60
2023-04-25T01:51:28.706Z,8.60
2023-04-25T01:51:51.487Z,8.60
2023-04-25T01:52:14.200Z,8.50
2023-04-25T01:52:36.984Z,8.50
2023-04-25T01:52:59.806Z,8.50
2023-04-25T01:53:24.033Z,8.50
2023-04-25T01:53:46.772Z,8.50
2023-04-25T01:54:09.765Z,8.50
2023-04-25T01:54:32.759Z,8.50
2023-04-25T01:54:55.932Z,8.50
2023-04-25T01:55:18.657Z,8.50
2023-04-25T01:55:41.449Z,8.50
2023-04-25T01:56:04.652Z,8.50
2023-04-25T01:56:31.553Z,8.50
2023-04-25T01:56:54.384Z,8.50
2023-04-25T01:57:17.132Z,8.50
2023-04-25T01:57:39.995Z,8.50
2023-04-25T01:58:03.903Z,8.50
2023-04-25T01:58:26.707Z,8.50
2023-04-25T01:58:51.946Z,8.50
2023-04-25T01:59:14.785Z,8.50
2023-04-25T01:59:37.732Z,8.40
2023-04-25T02:00:05.661Z,8.40
2023-04-25T02:00:28.399Z,8.40
2023-04-25T02:00:53.608Z,8.40
2023-04-25T02:01:16.497Z,8.40
2023-04-25T02:01:39.372Z,8.40
2023-04-25T02:02:04.877Z,8.30
2023-04-25T02:02:27.829Z,8.30
2023-04-25T02:02:51.959Z,8.30
2023-04-25T02:03:15.056Z,8.30
2023-04-25T02:03:41.530Z,8.30
2023-04-25T02:04:04.861Z,8.30
2023-04-25T02:04:28.173Z,8.30
2023-04-25T02:04:51.306Z,8.20
2023-04-25T02:05:14.521Z,8.20
2023-04-25T02:05:37.843Z,8.20
2023-04-25T02:06:01.203Z,8.20
2023-04-25T02:06:24.156Z,8.20
2023-04-25T02:06:48.335Z,8.20
2023-04-25T02:07:11.106Z,8.20
2023-04-25T02:07:33.891Z,8.20
2023-04-25T02:07:56.808Z,8.20
2023-04-25T02:08:20.036Z,8.20
2023-04-25T02:08:42.734Z,8.20
2023-04-25T02:09:05.881Z,8.20
2023-04-25T02:09:28.815Z,8.20
2023-04-25T02:09:51.811Z,8.20
2023-04-25T02:10:14.607Z,8.20
2023-04-25T02:10:37.451Z,8.20
2023-04-25T02:11:01.350Z,8.20
2023-04-25T02:11:24.042Z,8.20
2023-04-25T02:11:46.803Z,8.20
2023-04-25T02:12:10.915Z,8.20
2023-04-25T02:12:33.717Z,8.20
2023-04-25T02:12:56.502Z,8.20
2023-04-25T02:13:19.211Z,8.20
2023-04-25T02:13:41.940Z,8.10
2023-04-25T02:14:04.691Z,8.10
2023-04-25T02:14:27.452Z,8.10
2023-04-25T02:14:50.474Z,8.10
2023-04-25T02:15:13.393Z,8.10
2023-04-25T02:15:36.372Z,8.00
2023-04-25T02:15:59.339Z,8.10
2023-04-25T02:16:22.463Z,8.00
2023-04-25T02:16:46.052Z,8.10
2023-04-25T02:17:09.364Z,8.00
2023-04-25T02:17:34.687Z,8.00
2023-04-25T02:17:57.595Z,8.00
2023-04-25T02:18:23.302Z,8.00
2023-04-25T02:18:46.261Z,8.00
2023-04-25T02:19:09.127Z,8.00
2023-04-25T02:19:31.974Z,8.00
2023-04-25T02:19:54.793Z,8.00
2023-04-25T02:20:17.557Z,7.90
2023-04-25T02:20:40.236Z,8.00
2023-04-25T02:21:04.213Z,8.00
2023-04-25T02:21:27.672Z,8.00
2023-04-25T02:21:51.875Z,7.90
2023-04-25T02:22:14.633Z,8.00
2023-04-25T02:22:38.018Z,8.00
2023-04-25T02:23:00.901Z,8.00
2023-04-25T02:23:25.882Z,8.00
2023-04-25T02:23:50.304Z,8.00
2023-04-25T02:24:13.365Z,8.00
2023-04-25T02:24:36.285Z,8.00
2023-04-25T02:24:59.171Z,8.00
2023-04-25T02:25:22.153Z,8.00
2023-04-25T02:25:44.959Z,8.00
2023-04-25T02:26:07.724Z,8.00
2023-04-25T02:26:31.672Z,8.00
2023-04-25T02:26:57.547Z,8.00
2023-04-25T02:27:20.494Z,8.00
2023-04-25T02:27:45.409Z,8.10
2023-04-25T02:28:08.186Z,8.10
2023-04-25T02:28:31.572Z,8.00
2023-04-25T02:28:54.293Z,8.10
2023-04-25T02:29:17.033Z,8.10
2023-04-25T02:29:39.881Z,8.00
2023-04-25T02:30:02.596Z,8.00
2023-04-25T02:30:27.646Z,8.00
2023-04-25T02:30:50.417Z,8.00
2023-04-25T02:31:13.158Z,8.00
2023-04-25T02:31:36.003Z,8.00
2023-04-25T02:31:58.852Z,7.90
2023-04-25T02:32:21.675Z,7.90
2023-04-25T02:32:44.556Z,7.90
2023-04-25T02:33:07.315Z,7.90
2023-04-25T02:33:30.138Z,7.80
2023-04-25T02:33:53.405Z,7.80
2023-04-25T02:34:16.317Z,7.80
2023-04-25T02:34:39.095Z,7.80
2023-04-25T02:35:05.524Z,7.80
2023-04-25T02:35:28.257Z,7.80
2023-04-25T02:35:51.156Z,7.80
2023-04-25T02:36:13.943Z,7.80
2023-04-25T02:36:39.212Z,7.80
2023-04-25T02:37:03.448Z,7.80
2023-04-25T02:37:26.337Z,7.80
2023-04-25T02:37:49.119Z,7.80
2023-04-25T02:38:11.933Z,7.80
2023-04-25T02:38:34.731Z,7.80
2023-04-25T02:38:57.459Z,7.80
2023-04-25T02:39:20.213Z,7.80
2023-04-25T02:39:42.955Z,7.80
2023-04-25T02:40:07.592Z,7.80
2023-04-25T02:40:30.938Z,7.80
2023-04-25T02:40:53.678Z,7.80
2023-04-25T02:41:16.468Z,7.80
2023-04-25T02:41:39.233Z,7.80
2023-04-25T02:42:02.150Z,7.80
2023-04-25T02:42:25.039Z,7.80
2023-04-25T02:42:47.854Z,7.80
2023-04-25T02:43:10.664Z,7.80
2023-04-25T02:43:33.377Z,7.70
2023-04-25T02:43:56.328Z,7.70
2023-04-25T02:44:19.089Z,7.70
2023-04-25T02:44:41.731Z,7.70
2023-04-25T02:45:07.700Z,7.70
2023-04-25T02:45:30.682Z,7.70
2023-04-25T02:45:53.424Z,7.70
2023-04-25T02:46:19.195Z,7.70
2023-04-25T02:46:48.569Z,7.80
2023-04-25T02:47:11.542Z,7.70
2023-04-25T02:47:34.492Z,7.70
2023-04-25T02:47:57.811Z,7.60
2023-04-25T02:48:21.012Z,7.60
2023-04-25T02:48:44.029Z,7.60
2023-04-25T02:49:06.852Z,7.60
2023-04-25T02:49:29.622Z,7.60
2023-04-25T02:49:52.446Z,7.60
2023-04-25T02:50:15.231Z,7.70
2023-04-25T02:50:38.187Z,7.60
2023-04-25T02:51:01.004Z,7.60
2023-04-25T02:51:23.780Z,7.60
2023-04-25T02:51:46.478Z,7.60
2023-04-25T02:52:10.762Z,7.60
2023-04-25T02:52:33.585Z,7.60
2023-04-25T02:52:56.364Z,7.60
2023-04-25T02:53:19.090Z,7.60
2023-04-25T02:53:41.842Z,7.60
2023-04-25T02:54:04.714Z,7.60
2023-04-25T02:54:27.453Z,7.60
2023-04-25T02:54:50.230Z,7.60
2023-04-25T02:55:13.734Z,7.70
2023-04-25T02:55:36.594Z,7.60
2023-04-25T02:56:00.280Z,7.60
2023-04-25T02:56:23.025Z,7.60
2023-04-25T02:56:45.927Z,7.70
2023-04-25T02:57:08.687Z,7.70
2023-04-25T02:57:31.426Z,7.60
2023-04-25T02:57:56.390Z,7.60
2023-04-25T02:58:19.099Z,7.70
2023-04-25T02:58:41.862Z,7.60
2023-04-25T02:59:04.829Z,7.60
2023-04-25T02:59:27.582Z,7.60
2023-04-25T02:59:50.300Z,7.60
2023-04-25T03:00:15.409Z,7.60
2023-04-25T03:00:38.453Z,7.60
2023-04-25T03:01:02.080Z,8.10
2023-04-25T03:01:25.334Z,7.60
2023-04-25T03:01:48.151Z,7.70
2023-04-25T03:02:13.813Z,7.60
2023-04-25T03:02:36.836Z,7.70
2023-04-25T03:02:59.877Z,7.70
2023-04-25T03:03:23.002Z,7.70
2023-04-25T03:03:46.173Z,7.70
2023-04-25T03:04:09.024Z,7.80
2023-04-25T03:04:31.930Z,7.80
2023-04-25T03:04:55.234Z,7.80
2023-04-25T03:05:18.601Z,7.80
2023-04-25T03:05:41.291Z,7.80
2023-04-25T03:06:04.530Z,7.80
2023-04-25T03:06:27.321Z,7.70
2023-04-25T03:06:50.747Z,7.80
2023-04-25T03:07:14.847Z,7.70
2023-04-25T03:07:37.595Z,7.80
2023-04-25T03:08:00.402Z,7.70
2023-04-25T03:08:23.897Z,7.70
2023-04-25T03:08:46.616Z,7.80
2023-04-25T03:09:09.612Z,7.80
2023-04-25T03:09:32.361Z,7.80
2023-04-25T03:09:56.796Z,7.80
2023-04-25T03:10:20.037Z,7.80
2023-04-25T03:10:44.025Z,7.90
2023-04-25T03:11:07.089Z,7.90
2023-04-25T03:11:29.844Z,7.90
2023-04-25T03:11:52.586Z,7.90
2023-04-25T03:12:15.424Z,7.90
2023-04-25T03:12:38.220Z,8.00
2023-04-25T03:13:01.002Z,8.00
2023-04-25T03:13:23.765Z,8.00
2023-04-25T03:13:46.571Z,8.00
2023-04-25T03:14:09.437Z,8.00
2023-04-25T03:14:32.169Z,8.00
2023-04-25T03:14:54.912Z,8.00
2023-04-25T03:15:17.929Z,8.00
2023-04-25T03:15:40.689Z,8.10
2023-04-25T03:16:03.522Z,8.10
2023-04-25T03:16:26.426Z,8.10
2023-04-25T03:16:49.176Z,8.10
2023-04-25T03:17:11.881Z,8.10
2023-04-25T03:17:35.712Z,8.10
2023-04-25T03:17:58.628Z,8.10
2023-04-25T03:18:21.367Z,8.10
2023-04-25T03:18:44.098Z,8.10
2023-04-25T03:19:06.911Z,8.20
2023-04-25T03:19:29.731Z,8.20
2023-04-25T03:19:54.962Z,8.20
2023-04-25T03:20:18.122Z,8.20
2023-04-25T03:20:43.083Z,8.20
2023-04-25T03:21:05.926Z,8.20
2023-04-25T03:21:28.857Z,8.20
2023-04-25T03:21:51.607Z,8.20
2023-04-25T03:22:15.794Z,8.30
2023-04-25T03:22:38.448Z,8.20
2023-04-25T03:23:01.426Z,8.20
2023-04-25T03:23:24.183Z,8.20
2023-04-25T03:23:46.960Z,8.20
2023-04-25T03:24:09.780Z,8.20
2023-04-25T03:24:32.477Z,8.20
2023-04-25T03:24:55.903Z,8.10
2023-04-25T03:25:18.860Z,8.10
2023-04-25T03:25:41.831Z,8.10
2023-04-25T03:26:05.317Z,8.10
2023-04-25T03:26:28.151Z,8.10
2023-04-25T03:26:51.306Z,8.20
2023-04-25T03:27:14.087Z,8.20
2023-04-25T03:27:36.818Z,8.20
2023-04-25T03:27:59.557Z,8.30
2023-04-25T03:28:22.729Z,8.20
2023-04-25T03:28:45.468Z,8.20
2023-04-25T03:29:08.276Z,8.10
2023-04-25T03:29:31.280Z,8.10
2023-04-25T03:29:54.003Z,8.20
2023-04-25T03:30:16.769Z,8.10
2023-04-25T03:30:39.571Z,8.10
2023-04-25T03:31:02.517Z,8.10
2023-04-25T03:31:25.400Z,8.10
2023-04-25T03:31:48.207Z,8.10
2023-04-25T03:32:11.110Z,8.10
2023-04-25T03:32:33.888Z,8.10
2023-04-25T03:32:56.768Z,8.10
2023-04-25T03:33:19.546Z,8.10
2023-04-25T03:33:42.289Z,8.10
2023-04-25T03:34:05.121Z,8.00
2023-04-25T03:34:27.867Z,8.00
2023-04-25T03:34:50.778Z,8.00
2023-04-25T03:35:13.499Z,8.10
2023-04-25T03:35:36.425Z,8.10
2023-04-25T03:35:59.235Z,8.10
2023-04-25T03:36:21.948Z,8.10
2023-04-25T03:36:44.868Z,8.10
2023-04-25T03:37:07.706Z,8.10
2023-04-25T03:37:31.917Z,8.10
2023-04-25T03:37:54.680Z,8.10
2023-04-25T03:38:17.768Z,8.10
2023-04-25T03:38:42.442Z,8.10
2023-04-25T03:39:05.206Z,8.10
2023-04-25T03:39:27.910Z,8.10
2023-04-25T03:39:50.738Z,8.10
2023-04-25T03:40:13.468Z,8.10
2023-04-25T03:40:36.339Z,8.10
2023-04-25T03:40:59.051Z,8.10
2023-04-25T03:41:22.116Z,8.10
2023-04-25T03:41:44.840Z,8.10
2023-04-25T03:42:07.571Z,8.10
2023-04-25T03:42:30.576Z,8.10
2023-04-25T03:42:53.302Z,8.10
2023-04-25T03:43:16.071Z,8.10
2023-04-25T03:43:39.141Z,8.20
2023-04-25T03:44:01.838Z,8.10
2023-04-25T03:44:25.601Z,8.10
2023-04-25T03:44:48.335Z,8.10
2023-04-25T03:45:11.363Z,8.10
2023-04-25T03:45:34.132Z,8.10
2023-04-25T03:45:56.887Z,8.10
2023-04-25T03:46:19.720Z,8.10
2023-04-25T03:46:42.835Z,8.10
2023-04-25T03:47:05.567Z,8.10
2023-04-25T03:47:28.683Z,8.10
2023-04-25T03:47:51.959Z,8.10
2023-04-25T03:48:14.805Z,8.10
2023-04-25T03:48:37.566Z,8.10
2023-04-25T03:49:00.401Z,8.10
2023-04-25T03:49:23.333Z,8.10
2023-04-25T03:49:46.500Z,8.10
2023-04-25T03:50:10.495Z,8.20
2023-04-25T03:50:33.299Z,8.10
2023-04-25T03:50:56.268Z,8.10
2023-04-25T03:51:18.923Z,8.10
2023-04-25T03:51:41.622Z,8.10
2023-04-25T03:52:04.502Z,8.10
2023-04-25T03:52:27.274Z,8.10
2023-04-25T03:52:51.599Z,8.10
2023-04-25T03:53:14.382Z,8.10
2023-04-25T03:53:37.166Z,8.10
2023-04-25T03:53:59.932Z,8.10
2023-04-25T03:54:22.668Z,8.10
2023-04-25T03:54:45.506Z,8.10
2023-04-25T03:55:09.449Z,8.10
2023-04-25T03:55:32.215Z,8.20
2023-04-25T03:55:54.990Z,8.10
2023-04-25T03:56:17.772Z,8.10
2023-04-25T03:56:40.825Z,8.20
2023-04-25T03:57:03.695Z,8.10
2023-04-25T03:57:26.500Z,8.20
2023-04-25T03:57:49.340Z,8.20
2023-04-25T03:58:13.233Z,8.20
2023-04-25T03:58:36.011Z,8.20
2023-04-25T03:58:58.724Z,8.20
2023-04-25T03:59:21.458Z,8.20
2023-04-25T03:59:44.306Z,8.20
2023-04-25T04:00:09.190Z,8.20
2023-04-25T04:00:31.918Z,8.20
2023-04-25T04:00:54.652Z,8.20
2023-04-25T04:01:17.464Z,8.20
2023-04-25T04:01:40.422Z,8.20
2023-04-25T04:02:03.185Z,8.20
2023-04-25T04:02:26.251Z,8.20
2023-04-25T04:02:49.255Z,8.10
2023-04-25T04:03:12.647Z,8.00
2023-04-25T04:03:37.557Z,8.00
2023-04-25T04:04:01.512Z,8.00
2023-04-25T04:04:24.943Z,7.90
2023-04-25T04:04:48.494Z,7.90
2023-04-25T04:05:12.142Z,7.90
2023-04-25T04:05:35.070Z,7.90
2023-04-25T04:05:57.883Z,7.90
2023-04-25T04:06:21.957Z,7.90
2023-04-25T04:06:44.772Z,7.90
2023-04-25T04:07:07.731Z,7.90
2023-04-25T04:07:30.742Z,7.80
2023-04-25T04:07:55.043Z,7.80
2023-04-25T04:08:17.992Z,7.90
2023-04-25T04:08:40.787Z,7.80
2023-04-25T04:09:03.789Z,7.90
2023-04-25T04:09:26.989Z,7.90
2023-04-25T04:09:49.745Z,7.80
2023-04-25T04:10:13.004Z,7.90
2023-04-25T04:10:35.921Z,7.80
2023-04-25T04:10:58.716Z,7.80
2023-04-25T04:11:21.783Z,7.80
2023-04-25T04:11:44.568Z,7.80
2023-04-25T04:12:07.828Z,7.80
2023-04-25T04:12:30.597Z,7.80
2023-04-25T04:12:53.406Z,7.80
2023-04-25T04:13:16.109Z,7.70
2023-04-25T04:13:39.422Z,7.70
2023-04-25T04:14:02.166Z,7.80
2023-04-25T04:14:24.859Z,7.80
2023-04-25T04:14:47.609Z,7.80
2023-04-25T04:15:11.855Z,7.80
2023-04-25T04:15:34.622Z,7.80
2023-04-25T04:15:57.512Z,7.80
2023-04-25T04:16:20.375Z,7.90
2023-04-25T04:16:43.645Z,7.90
2023-04-25T04:17:07.108Z,7.90
2023-04-25T04:17:29.861Z,8.00
2023-04-25T04:17:52.782Z,8.00
2023-04-25T04:18:15.607Z,7.90
2023-04-25T04:18:38.401Z,8.00
2023-04-25T04:19:01.209Z,8.00
2023-04-25T04:19:24.008Z,8.00
2023-04-25T04:19:46.915Z,8.00
2023-04-25T04:20:11.083Z,7.90
2023-04-25T04:20:34.022Z,7.90
2023-04-25T04:20:59.077Z,7.90
2023-04-25T04:21:21.826Z,7.90
2023-04-25T04:21:44.614Z,7.90
2023-04-25T04:22:07.537Z,7.90
2023-04-25T04:22:30.232Z,7.80
2023-04-25T04:22:54.574Z,7.90
2023-04-25T04:23:17.329Z,7.90
2023-04-25T04:23:40.113Z,7.80
2023-04-25T04:24:02.968Z,7.80
2023-04-25T04:24:25.888Z,7.80
2023-04-25T04:24:48.533Z,7.90
2023-04-25T04:25:12.747Z,7.80
2023-04-25T04:25:35.561Z,7.80
2023-04-25T04:25:58.370Z,7.80
2023-04-25T04:26:24.416Z,7.80
2023-04-25T04:26:47.567Z,7.80
2023-04-25T04:27:10.919Z,7.80
2023-04-25T04:27:33.647Z,7.80
2023-04-25T04:27:56.422Z,7.80
2023-04-25T04:28:19.188Z,7.80
2023-04-25T04:28:41.994Z,7.80
2023-04-25T04:29:04.875Z,7.80
2023-04-25T04:29:28.518Z,7.80
2023-04-25T04:29:53.432Z,7.70
2023-04-25T04:30:16.878Z,7.70
2023-04-25T04:30:40.557Z,7.70
2023-04-25T04:31:05.087Z,7.70
2023-04-25T04:31:27.964Z,7.80
2023-04-25T04:31:51.797Z,7.70
2023-04-25T04:32:14.818Z,7.80
2023-04-25T04:32:37.727Z,7.80
2023-04-25T04:33:02.082Z,7.80
2023-04-25T04:33:24.945Z,7.80
2023-04-25T04:33:48.022Z,7.70
2023-04-25T04:34:12.111Z,7.70
2023-04-25T04:34:34.998Z,7.70
2023-04-25T04:34:58.447Z,7.70
2023-04-25T04:35:21.309Z,7.70
2023-04-25T04:35:44.168Z,7.70
2023-04-25T04:36:08.845Z,7.70
2023-04-25T04:36:32.195Z,7.70
2023-04-25T04:36:54.880Z,7.70
2023-04-25T04:37:17.658Z,7.60
2023-04-25T04:37:40.743Z,7.60
2023-04-25T04:38:04.954Z,7.60
2023-04-25T04:38:27.776Z,7.70
2023-04-25T04:38:50.581Z,7.70
2023-04-25T04:39:13.454Z,7.60
2023-04-25T04:39:36.256Z,7.70
2023-04-25T04:40:06.289Z,7.70
2023-04-25T04:40:29.232Z,7.70
2023-04-25T04:40:53.550Z,7.70
2023-04-25T04:41:16.389Z,7.70
2023-04-25T04:41:39.344Z,7.70
2023-04-25T04:42:06.107Z,7.70
2023-04-25T04:42:29.320Z,7.70
2023-04-25T04:42:52.131Z,7.70
2023-04-25T04:43:16.059Z,7.70
2023-04-25T04:43:40.669Z,7.70
2023-04-25T04:44:04.355Z,7.70
2023-04-25T04:44:27.469Z,7.70
2023-04-25T04:44:50.350Z,7.70
2023-04-25T04:45:14.103Z,7.70
2023-04-25T04:45:37.791Z,7.70
2023-04-25T04:46:01.795Z,7.70
2023-04-25T04:46:25.937Z,7.80
2023-04-25T04:46:49.803Z,7.70
2023-04-25T04:47:15.408Z,7.70
2023-04-25T04:47:38.172Z,7.80
2023-04-25T04:48:01.158Z,7.80
2023-04-25T04:48:24.119Z,7.80
2023-04-25T04:48:46.900Z,7.80
2023-04-25T04:49:09.941Z,7.90
2023-04-25T04:49:32.747Z,7.80
2023-04-25T04:49:55.435Z,7.80
2023-04-25T04:50:18.188Z,7.80
2023-04-25T04:50:41.387Z,7.80
2023-04-25T04:51:04.347Z,7.80
2023-04-25T04:51:27.169Z,7.80
2023-04-25T04:51:51.252Z,7.90
2023-04-25T04:52:13.942Z,7.90
2023-04-25T04:52:36.678Z,7.80
2023-04-25T04:52:59.426Z,7.80
2023-04-25T04:53:23.616Z,7.80
2023-04-25T04:53:46.423Z,7.80
2023-04-25T04:54:09.276Z,7.80
2023-04-25T04:54:32.024Z,7.80
2023-04-25T04:54:55.278Z,7.90
2023-04-25T04:55:18.033Z,7.90
2023-04-25T04:55:42.331Z,7.90
2023-04-25T04:56:05.794Z,7.90
2023-04-25T04:56:29.320Z,7.90
2023-04-25T04:56:53.548Z,8.00
2023-04-25T04:57:17.581Z,7.90
2023-04-25T04:57:40.680Z,8.60
2023-04-25T04:58:03.490Z,7.90
2023-04-25T04:58:26.414Z,7.90
2023-04-25T04:58:50.443Z,7.80
2023-04-25T04:59:13.235Z,7.80
2023-04-25T04:59:36.498Z,7.80
2023-04-25T04:59:59.269Z,7.80
2023-04-25T05:00:22.971Z,7.80
2023-04-25T05:00:46.293Z,7.80
2023-04-25T05:01:09.119Z,7.80
2023-04-25T05:01:31.980Z,7.80
2023-04-25T05:01:54.820Z,7.80
2023-04-25T05:02:17.569Z,7.80
2023-04-25T05:02:40.671Z,7.80
2023-04-25T05:03:03.950Z,7.90
2023-04-25T05:03:28.477Z,7.90
2023-04-25T05:03:52.663Z,7.90
2023-04-25T05:04:16.030Z,7.90
2023-04-25T05:04:39.082Z,7.90
2023-04-25T05:05:02.133Z,7.90
2023-04-25T05:05:24.983Z,7.90
2023-04-25T05:05:48.134Z,7.90
2023-04-25T05:06:13.138Z,7.90
2023-04-25T05:06:35.885Z,7.90
2023-04-25T05:07:01.105Z,7.90
2023-04-25T05:07:24.921Z,7.90
2023-04-25T05:07:47.841Z,7.90
2023-04-25T05:08:10.749Z,7.90
2023-04-25T05:08:35.032Z,7.90
2023-04-25T05:08:57.933Z,7.80
2023-04-25T05:09:20.786Z,8.30
2023-04-25T05:09:43.465Z,7.90
2023-04-25T05:10:07.814Z,7.90
2023-04-25T05:10:30.883Z,7.90
2023-04-25T05:10:56.830Z,7.90
2023-04-25T05:11:19.566Z,8.00
2023-04-25T05:11:42.248Z,8.00
2023-04-25T05:12:05.439Z,8.00